Hoegh Berlin — C6XQ4 — position and weather

sailwx.info

Track history (hours):
 
Tides and Currents Weather Stations Pressure Air Temp Water Temp Dewpoint Dewpoint Depression Visibility Wind Speed Wind Dir Waves Ship Positions

Hoegh Berlin

Last reported at 2015-May-17 15:31 UTC. Time now 2015-May-23 01:18 UTC.
Position N 35°19' E 143°35'.

Length 228 m; draft 9.2 m.

Type: Cargo ship. MMSI: 311019100.

Date/timePositionNaut miles runAvg speedWind from/ knotsBaromVisibWave heightAir tempDewpointWater temp
2015-May-17 15:31N 35°19' E 143°35'43214.3
2015-May-16 09:17N 33°60' E 134°58'1115.3
2015-May-16 08:33N 34°11' E 134°57'1312.9
2015-May-16 07:33N 34°23' E 135°02'1716.6
2015-May-16 06:33N 34°35' E 135°16'7 6.0
2015-May-16 05:29N 34°41' E 135°17'0 0.0
2015-May-16 04:23N 34°41' E 135°17'0 0.0
2015-May-16 03:29N 34°41' E 135°17'0 0.0
2015-May-16 02:11N 34°41' E 135°17'0 0.0
2015-May-16 01:29N 34°41' E 135°17'0 0.0
2015-May-16 00:29N 34°41' E 135°17'0 0.0
2015-May-15 23:29N 34°41' E 135°17'1 0.6
2015-May-15 22:33N 34°41' E 135°18'1110.8
2015-May-15 21:33N 34°31' E 135°13'1717.3
2015-May-15 20:33N 34°18' E 134°60'1212.3
2015-May-15 19:33N 34°05' E 134°59'20611.2
2015-May-15 01:07N 34°01' E 130°51'5 7.2
2015-May-15 00:28N 34°04' E 130°47'1511.3
2015-May-14 23:10N 34°04' E 130°29'1517.4
2015-May-14 22:19N 34°02' E 130°11'  
Track history (hours):
 
Tides and Currents Weather Stations Pressure Air Temp Water Temp Dewpoint Dewpoint Depression Visibility Wind Speed Wind Dir Waves Ship Positions

Hoegh Berlin

Last reported at 2015-May-17 15:31 UTC. Time now 2015-May-23 01:18 UTC.
Position N 35°19' E 143°35'.

Length 228 m; draft 9.2 m.

Type: Cargo ship. MMSI: 311019100.

Date/timePositionNaut miles runAvg speedWind from/ knotsBaromVisibWave heightAir tempDewpointWater temp
2015-May-17 15:31N 35°19' E 143°35'43214.3
2015-May-16 09:17N 33°60' E 134°58'1115.3
2015-May-16 08:33N 34°11' E 134°57'1312.9
2015-May-16 07:33N 34°23' E 135°02'1716.6
2015-May-16 06:33N 34°35' E 135°16'7 6.0
2015-May-16 05:29N 34°41' E 135°17'0 0.0
2015-May-16 04:23N 34°41' E 135°17'0 0.0
2015-May-16 03:29N 34°41' E 135°17'0 0.0
2015-May-16 02:11N 34°41' E 135°17'0 0.0
2015-May-16 01:29N 34°41' E 135°17'0 0.0
2015-May-16 00:29N 34°41' E 135°17'0 0.0
2015-May-15 23:29N 34°41' E 135°17'1 0.6
2015-May-15 22:33N 34°41' E 135°18'1110.8
2015-May-15 21:33N 34°31' E 135°13'1717.3
2015-May-15 20:33N 34°18' E 134°60'1212.3
2015-May-15 19:33N 34°05' E 134°59'20611.2
2015-May-15 01:07N 34°01' E 130°51'5 7.2
2015-May-15 00:28N 34°04' E 130°47'1511.3
2015-May-14 23:10N 34°04' E 130°29'1517.4
2015-May-14 22:19N 34°02' E 130°11'  

Dump ship's entire track history